Time;durP1;ratioP1;P1;durP2;ratioP2;P2;SDS_P1;SDS_P2;PMS_P1;PMS_P2;Temp;Humidity;BMP_temperature;BMP_pressure;BME280_temperature;BME280_humidity;BME280_pressure;Samples;Min_cycle;Max_cycle;Signal;HPM_P1;HPM_P2
2021/11/19 00:00:46;;;;;;;12.45;6.20;;;10.20;99.90;;;;;;5021087;28;20201;-84
2021/11/19 00:03:13;;;;;;;12.30;6.55;;;10.20;99.90;;;;;;5020747;28;20189;-84
2021/11/19 00:05:40;;;;;;;11.23;7.38;;;10.20;99.90;;;;;;4986879;28;20301;-85
2021/11/19 00:08:07;;;;;;;12.68;7.55;;;10.30;99.90;;;;;;5003072;28;20166;-83
2021/11/19 00:10:33;;;;;;;13.35;7.53;;;10.20;99.90;;;;;;5021135;28;20189;-84
2021/11/19 00:12:59;;;;;;;16.73;8.18;;;10.30;99.90;;;;;;5006527;28;20208;-84
2021/11/19 00:15:29;;;;;;;20.70;8.30;;;10.30;99.90;;;;;;5021647;28;20689;-83
2021/11/19 00:17:55;;;;;;;12.77;7.63;;;10.30;99.90;;;;;;5021079;28;20183;-83
2021/11/19 00:20:28;;;;;;;12.73;8.67;;;10.20;99.90;;;;;;5020136;28;20684;-85
2021/11/19 00:22:57;;;;;;;11.77;7.82;;;10.20;99.90;;;;;;4975604;28;20178;-84
2021/11/19 00:25:24;;;;;;;15.07;8.40;;;10.20;99.90;;;;;;5023281;28;20197;-83
2021/11/19 00:27:50;;;;;;;20.02;7.95;;;10.20;99.90;;;;;;5023892;28;20170;-83
2021/11/19 00:30:18;;;;;;;15.88;8.10;;;10.20;99.90;;;;;;5005156;28;20181;-83
2021/11/19 00:32:44;;;;;;;21.63;8.40;;;10.20;99.90;;;;;;5022756;28;20178;-83
2021/11/19 00:35:12;;;;;;;13.35;7.90;;;10.30;99.90;;;;;;5024296;28;20233;-83
2021/11/19 00:37:39;;;;;;;9.15;6.85;;;10.20;99.90;;;;;;5023418;28;20232;-83
2021/11/19 00:40:11;;;;;;;15.40;7.25;;;10.30;99.90;;;;;;5022965;28;20170;-83
2021/11/19 00:42:37;;;;;;;13.50;7.55;;;10.30;99.90;;;;;;5021477;28;20178;-82
2021/11/19 00:45:04;;;;;;;12.35;7.50;;;10.30;99.90;;;;;;5021423;28;20240;-82
2021/11/19 00:47:30;;;;;;;12.32;6.90;;;10.30;99.90;;;;;;5039064;28;20229;-84
2021/11/19 00:49:59;;;;;;;13.47;7.90;;;10.30;99.90;;;;;;5014754;28;20178;-84
2021/11/19 00:52:25;;;;;;;11.88;7.65;;;10.30;99.90;;;;;;5027252;28;20171;-84
2021/11/19 00:54:51;;;;;;;15.30;8.55;;;10.30;99.90;;;;;;5025965;28;20200;-84
2021/11/19 00:57:18;;;;;;;10.40;6.90;;;10.30;99.90;;;;;;4992976;28;20273;-83
2021/11/19 00:59:44;;;;;;;9.32;6.80;;;10.30;99.90;;;;;;5008992;28;20174;-84
2021/11/19 01:02:15;;;;;;;10.25;6.53;;;10.30;99.90;;;;;;5007994;28;20178;-84
2021/11/19 01:04:42;;;;;;;12.15;7.82;;;10.30;99.90;;;;;;5023028;28;20216;-83
2021/11/19 01:07:09;;;;;;;16.92;8.38;;;10.30;99.90;;;;;;5025848;28;20170;-83
2021/11/19 01:09:38;;;;;;;10.43;6.75;;;10.40;99.90;;;;;;5025460;28;20221;-83
2021/11/19 01:12:06;;;;;;;11.75;6.75;;;10.40;99.90;;;;;;4992292;28;20174;-83
2021/11/19 01:14:41;;;;;;;11.65;7.43;;;10.40;99.90;;;;;;5008888;28;20673;-83
2021/11/19 01:17:21;;;;;;;11.27;7.15;;;10.40;99.90;;;;;;5009187;28;20270;-84
2021/11/19 01:19:52;;;;;;;9.85;6.57;;;10.40;99.90;;;;;;5008837;28;20170;-83
2021/11/19 01:22:25;;;;;;;13.45;8.00;;;10.40;99.90;;;;;;5026606;28;20181;-83
2021/11/19 01:24:51;;;;;;;9.23;6.80;;;10.40;99.90;;;;;;5006293;28;20210;-83
2021/11/19 01:27:17;;;;;;;10.07;7.00;;;10.30;99.90;;;;;;5024270;28;20252;-86
2021/11/19 01:29:43;;;;;;;17.00;8.38;;;10.40;99.90;;;;;;5025374;28;20416;-83
2021/11/19 01:32:16;;;;;;;11.93;7.53;;;10.40;99.90;;;;;;5024706;28;20166;-84
2021/11/19 01:34:42;;;;;;;14.02;8.20;;;10.40;99.90;;;;;;5008719;28;20440;-84
2021/11/19 01:37:09;;;;;;;9.90;6.23;;;10.40;99.90;;;;;;5025722;28;20174;-83
2021/11/19 01:39:36;;;;;;;14.48;9.30;;;10.40;99.90;;;;;;5008866;28;20444;-83
2021/11/19 01:42:10;;;;;;;12.77;8.27;;;10.40;99.90;;;;;;5026860;28;20170;-84
2021/11/19 01:44:53;;;;;;;12.07;6.68;;;10.40;99.90;;;;;;5011045;28;20209;-84
2021/11/19 01:47:22;;;;;;;10.88;7.90;;;10.40;99.90;;;;;;5027536;28;20189;-85
2021/11/19 01:49:49;;;;;;;14.98;7.93;;;10.40;99.90;;;;;;5026308;28;20712;-84
2021/11/19 01:52:20;;;;;;;9.45;6.90;;;10.50;99.90;;;;;;5026251;28;20174;-83
2021/11/19 01:55:07;;;;;;;11.43;7.18;;;10.50;99.90;;;;;;5007393;28;20278;-84
2021/11/19 01:57:40;;;;;;;12.63;7.07;;;10.50;99.90;;;;;;5025194;28;20166;-84
2021/11/19 02:00:32;;;;;;;9.80;7.32;;;10.50;99.90;;;;;;5026369;28;20618;-84
2021/11/19 02:03:02;;;;;;;10.07;7.07;;;10.50;99.90;;;;;;5023765;28;20170;-83
2021/11/19 02:05:37;;;;;;;13.20;7.05;;;10.50;99.90;;;;;;5022500;28;20726;-83
2021/11/19 02:08:18;;;;;;;12.25;6.88;;;10.50;99.90;;;;;;5005331;28;20177;-83
2021/11/19 02:11:10;;;;;;;10.75;7.00;;;10.50;99.90;;;;;;5020389;28;20178;-84
2021/11/19 02:14:02;;;;;;;11.43;7.57;;;10.60;99.90;;;;;;5018359;28;20162;-84
2021/11/19 02:16:35;;;;;;;13.77;8.02;;;10.60;99.90;;;;;;5001823;28;20217;-83
2021/11/19 02:19:08;;;;;;;15.15;8.63;;;10.60;99.90;;;;;;5002214;28;20209;-83
2021/11/19 02:21:45;;;;;;;11.20;7.57;;;10.60;99.90;;;;;;5026622;28;20205;-83
2021/11/19 02:24:20;;;;;;;10.18;6.50;;;10.60;99.90;;;;;;5004429;28;20202;-83
2021/11/19 02:26:50;;;;;;;12.55;6.70;;;10.60;99.90;;;;;;5005406;28;20174;-84
2021/11/19 02:29:16;;;;;;;14.40;7.15;;;10.60;99.90;;;;;;5004872;28;20174;-83
2021/11/19 02:31:59;;;;;;;13.30;6.70;;;10.60;99.90;;;;;;5004428;28;20178;-83
2021/11/19 02:34:25;;;;;;;10.45;6.68;;;10.60;99.90;;;;;;4996153;28;20236;-84
2021/11/19 02:36:59;;;;;;;12.82;7.60;;;10.60;99.90;;;;;;4993257;28;20306;-84
2021/11/19 02:39:28;;;;;;;8.80;6.00;;;10.60;99.90;;;;;;5003483;28;20260;-84
2021/11/19 02:42:02;;;;;;;12.25;6.95;;;10.60;99.90;;;;;;4987580;28;20174;-84
2021/11/19 02:44:34;;;;;;;12.00;7.47;;;10.70;99.90;;;;;;5003068;28;20908;-83
2021/11/19 02:47:18;;;;;;;11.60;7.38;;;10.70;99.90;;;;;;5022579;28;20184;-83
2021/11/19 02:49:45;;;;;;;16.40;7.32;;;10.70;99.90;;;;;;5022253;28;20231;-84
2021/11/19 02:52:24;;;;;;;10.57;7.10;;;10.70;99.90;;;;;;4972972;28;20182;-84
2021/11/19 02:54:50;;;;;;;12.27;7.32;;;10.70;99.90;;;;;;5023144;28;20190;-83
2021/11/19 02:57:17;;;;;;;11.57;6.93;;;10.70;99.90;;;;;;5006099;28;20204;-83
2021/11/19 02:59:44;;;;;;;13.27;7.53;;;10.80;99.90;;;;;;5006056;28;20261;-84
2021/11/19 03:02:14;;;;;;;15.50;6.95;;;10.80;99.90;;;;;;4989592;28;20174;-85
2021/11/19 03:04:48;;;;;;;10.18;6.35;;;10.80;99.90;;;;;;5004896;28;20599;-83
2021/11/19 03:07:15;;;;;;;13.90;7.25;;;10.80;99.90;;;;;;5021922;28;20177;-84
2021/11/19 03:09:54;;;;;;;12.07;7.13;;;10.80;99.90;;;;;;5006210;28;20182;-84
2021/11/19 03:12:22;;;;;;;10.60;6.25;;;10.80;99.90;;;;;;5004829;28;20173;-84
2021/11/19 03:14:51;;;;;;;13.27;5.88;;;10.80;99.90;;;;;;5003949;28;20202;-84
2021/11/19 03:17:18;;;;;;;10.05;5.65;;;10.80;99.90;;;;;;5005193;28;20265;-83
2021/11/19 03:19:45;;;;;;;14.93;7.88;;;10.80;99.90;;;;;;5024019;28;20172;-83
2021/11/19 03:22:12;;;;;;;7.68;5.50;;;10.80;99.90;;;;;;5024097;28;20225;-83
2021/11/19 03:24:39;;;;;;;10.13;6.22;;;10.80;99.90;;;;;;5023390;28;20602;-84
2021/11/19 03:27:11;;;;;;;11.50;6.80;;;10.90;99.90;;;;;;5006541;28;20172;-83
2021/11/19 03:29:40;;;;;;;12.38;5.82;;;10.90;99.90;;;;;;5005214;28;20200;-82
2021/11/19 03:32:08;;;;;;;11.15;6.45;;;10.90;99.90;;;;;;5005687;28;20170;-82
2021/11/19 03:34:34;;;;;;;10.85;6.40;;;10.90;99.90;;;;;;5022204;28;20230;-83
2021/11/19 03:37:00;;;;;;;11.90;6.78;;;10.90;99.90;;;;;;4988785;28;20174;-84
2021/11/19 03:39:28;;;;;;;11.97;6.97;;;10.90;99.90;;;;;;5022963;28;20356;-84
2021/11/19 03:41:58;;;;;;;9.80;6.65;;;10.90;99.90;;;;;;5020905;28;20185;-84
2021/11/19 03:44:43;;;;;;;11.27;6.57;;;10.90;99.90;;;;;;5004446;28;20227;-84
2021/11/19 03:47:16;;;;;;;10.20;6.63;;;11.00;99.90;;;;;;5004641;28;20200;-83
2021/11/19 03:49:44;;;;;;;11.85;6.25;;;11.00;99.90;;;;;;5006422;28;20354;-83
2021/11/19 03:52:14;;;;;;;9.20;5.80;;;11.00;99.90;;;;;;5005813;28;20178;-83
2021/11/19 03:54:43;;;;;;;8.65;5.35;;;11.00;99.90;;;;;;5023731;28;20186;-82
2021/11/19 03:57:10;;;;;;;8.68;5.30;;;11.00;99.90;;;;;;5028509;28;20557;-83
2021/11/19 03:59:36;;;;;;;15.00;7.18;;;11.00;99.90;;;;;;5010429;28;20201;-83
2021/11/19 04:02:04;;;;;;;8.17;5.67;;;11.00;99.90;;;;;;5028950;28;20256;-83
2021/11/19 04:04:33;;;;;;;10.73;6.93;;;11.00;99.90;;;;;;5029107;28;20467;-83
2021/11/19 04:07:00;;;;;;;12.82;5.88;;;11.00;99.90;;;;;;5028225;28;20166;-83
2021/11/19 04:09:27;;;;;;;9.90;7.00;;;11.00;99.90;;;;;;5010614;28;20180;-83
2021/11/19 04:11:53;;;;;;;7.85;5.80;;;11.00;99.90;;;;;;5029192;28;20166;-83
2021/11/19 04:14:19;;;;;;;7.63;5.43;;;11.00;99.90;;;;;;5028536;28;20170;-84
2021/11/19 04:16:47;;;;;;;9.10;6.87;;;11.00;99.90;;;;;;5029079;28;20579;-83
2021/11/19 04:19:15;;;;;;;16.55;7.05;;;10.90;99.90;;;;;;5028748;28;20206;-83
2021/11/19 04:21:45;;;;;;;14.98;7.20;;;10.90;99.90;;;;;;5028793;28;20171;-84
2021/11/19 04:24:15;;;;;;;12.18;6.95;;;10.90;99.90;;;;;;5007767;28;20209;-84
2021/11/19 04:26:40;;;;;;;11.45;7.30;;;10.90;99.90;;;;;;5025710;28;20206;-84
2021/11/19 04:29:07;;;;;;;14.33;7.00;;;10.90;99.90;;;;;;4990066;28;20182;-85
2021/11/19 04:31:34;;;;;;;13.50;6.95;;;10.90;99.90;;;;;;5019263;28;20179;-85
2021/11/19 04:34:03;;;;;;;15.05;8.38;;;10.90;99.90;;;;;;5007661;28;20167;-84
2021/11/19 04:36:29;;;;;;;13.70;7.82;;;10.80;99.90;;;;;;5024037;28;20197;-84
2021/11/19 04:38:54;;;;;;;13.60;7.72;;;10.80;99.90;;;;;;5008560;28;20170;-84
2021/11/19 04:41:21;;;;;;;14.40;7.37;;;10.80;99.90;;;;;;5026314;28;20176;-84
2021/11/19 04:43:47;;;;;;;14.15;7.85;;;10.80;99.90;;;;;;4991305;28;20178;-84
2021/11/19 04:46:13;;;;;;;14.07;8.07;;;10.80;99.90;;;;;;5006287;28;20328;-85
2021/11/19 04:48:39;;;;;;;11.52;7.47;;;10.80;99.90;;;;;;5004807;28;20413;-84
2021/11/19 04:51:09;;;;;;;11.93;7.55;;;10.80;99.90;;;;;;5022587;28;20162;-84
2021/11/19 04:53:37;;;;;;;22.27;9.40;;;10.80;99.90;;;;;;5021982;28;20256;-84
2021/11/19 04:56:04;;;;;;;19.23;7.57;;;10.80;99.90;;;;;;5022068;28;20260;-83
2021/11/19 04:58:31;;;;;;;15.93;7.55;;;10.90;99.90;;;;;;5021231;28;20253;-84
2021/11/19 05:01:00;;;;;;;15.98;9.15;;;10.90;99.90;;;;;;5021933;28;20208;-84
2021/11/19 05:03:26;;;;;;;14.20;8.43;;;10.90;99.90;;;;;;5004850;28;20194;-83
2021/11/19 05:05:53;;;;;;;18.42;8.85;;;10.90;99.90;;;;;;5021226;28;20268;-83
2021/11/19 05:08:20;;;;;;;13.52;8.30;;;10.90;99.90;;;;;;5002420;28;20200;-83
2021/11/19 05:10:48;;;;;;;15.75;8.80;;;10.90;99.90;;;;;;5003862;28;20166;-85
2021/11/19 05:13:16;;;;;;;15.40;8.23;;;10.90;99.90;;;;;;4992047;28;20182;-84
2021/11/19 05:15:44;;;;;;;17.25;8.75;;;11.00;99.90;;;;;;5007123;28;20209;-84
2021/11/19 05:18:11;;;;;;;19.10;8.27;;;11.00;99.90;;;;;;5007975;28;20175;-84
2021/11/19 05:20:37;;;;;;;15.77;7.80;;;11.00;99.90;;;;;;5007790;28;20174;-85
2021/11/19 05:23:03;;;;;;;14.27;9.10;;;11.00;99.90;;;;;;5023612;28;20170;-85
2021/11/19 05:25:33;;;;;;;15.88;8.70;;;11.00;99.90;;;;;;5022933;28;20475;-84
2021/11/19 05:27:59;;;;;;;14.60;7.28;;;11.00;99.90;;;;;;5001564;28;20645;-84
2021/11/19 05:30:25;;;;;;;19.63;8.40;;;11.00;99.90;;;;;;5017890;28;20182;-84
2021/11/19 05:32:51;;;;;;;17.00;9.15;;;11.00;99.90;;;;;;5010617;28;20271;-82
2021/11/19 05:35:21;;;;;;;18.50;8.67;;;11.00;99.90;;;;;;4987353;28;20294;-83
2021/11/19 05:37:47;;;;;;;10.95;6.90;;;11.00;99.90;;;;;;4989068;28;20184;-84
2021/11/19 05:40:15;;;;;;;14.27;8.05;;;11.10;99.90;;;;;;5004975;28;20589;-84
2021/11/19 05:42:42;;;;;;;13.73;7.85;;;11.10;99.90;;;;;;5004067;28;20198;-85
2021/11/19 05:45:09;;;;;;;13.80;6.70;;;11.10;99.90;;;;;;5002747;28;20214;-84
2021/11/19 05:47:35;;;;;;;19.85;8.88;;;11.10;99.90;;;;;;5019282;28;20186;-85
2021/11/19 05:50:03;;;;;;;12.93;8.07;;;11.10;99.90;;;;;;5021343;28;20181;-83
2021/11/19 05:52:30;;;;;;;14.05;7.18;;;11.10;99.90;;;;;;5036711;28;20181;-85
2021/11/19 05:54:56;;;;;;;12.60;7.25;;;11.10;99.90;;;;;;5019133;28;20201;-83
2021/11/19 05:57:30;;;;;;;16.65;7.65;;;11.10;99.90;;;;;;5018364;28;20178;-85
2021/11/19 05:59:56;;;;;;;12.13;7.53;;;11.10;99.90;;;;;;5033476;28;20170;-85
2021/11/19 06:02:25;;;;;;;20.70;7.93;;;11.20;99.90;;;;;;5006026;28;20173;-83
2021/11/19 06:04:50;;;;;;;12.88;6.55;;;11.20;99.90;;;;;;5005814;28;20277;-83
2021/11/19 06:07:17;;;;;;;16.20;8.37;;;11.20;99.90;;;;;;5031640;28;20237;-83
2021/11/19 06:09:46;;;;;;;14.93;7.82;;;11.20;99.90;;;;;;5020167;28;20217;-84
2021/11/19 06:12:26;;;;;;;14.13;8.30;;;11.20;99.90;;;;;;5035017;28;20177;-84
2021/11/19 06:14:55;;;;;;;14.18;6.53;;;11.20;99.90;;;;;;5019720;28;20229;-84
2021/11/19 06:17:43;;;;;;;11.40;6.85;;;11.20;99.90;;;;;;5018801;28;20661;-84
2021/11/19 06:20:25;;;;;;;11.70;7.30;;;11.30;99.90;;;;;;5004354;28;20189;-83
2021/11/19 06:22:57;;;;;;;11.00;7.00;;;11.30;99.90;;;;;;5033011;28;20223;-84
2021/11/19 06:25:26;;;;;;;13.05;7.38;;;11.30;99.90;;;;;;5014741;28;20210;-83
2021/11/19 06:27:54;;;;;;;10.02;5.93;;;11.30;99.90;;;;;;5024777;28;20245;-84
2021/11/19 06:30:21;;;;;;;10.95;6.90;;;11.30;99.90;;;;;;5019674;28;20169;-83
2021/11/19 06:32:47;;;;;;;13.30;7.63;;;11.30;99.90;;;;;;5024769;28;20177;-83
2021/11/19 06:35:14;;;;;;;12.88;7.20;;;11.30;99.90;;;;;;4987840;28;20197;-85
2021/11/19 06:37:40;;;;;;;10.30;6.18;;;11.30;99.90;;;;;;5005963;28;20336;-83
2021/11/19 06:40:08;;;;;;;10.67;6.80;;;11.30;99.90;;;;;;5004238;28;20181;-84
2021/11/19 06:42:35;;;;;;;12.27;6.20;;;11.40;99.90;;;;;;5024066;28;20421;-87
2021/11/19 06:45:00;;;;;;;10.30;6.60;;;11.40;99.90;;;;;;5001872;28;20237;-86
2021/11/19 06:47:26;;;;;;;10.37;6.23;;;11.30;99.90;;;;;;5006831;28;20185;-86
2021/11/19 06:49:52;;;;;;;8.80;5.90;;;11.30;99.90;;;;;;5004217;28;20181;-86
2021/11/19 06:52:17;;;;;;;13.40;6.60;;;11.40;99.90;;;;;;5002916;28;20504;-85
2021/11/19 06:54:46;;;;;;;16.17;7.63;;;11.40;99.90;;;;;;5003114;28;20198;-85
2021/11/19 06:57:11;;;;;;;11.35;7.10;;;11.30;99.90;;;;;;4969989;28;20553;-85
2021/11/19 06:59:39;;;;;;;8.53;5.60;;;11.40;99.90;;;;;;5004622;28;20200;-85
2021/11/19 07:02:07;;;;;;;12.20;6.85;;;11.30;99.90;;;;;;5003723;28;20182;-85
2021/11/19 07:05:02;;;;;;;11.50;7.28;;;11.40;99.90;;;;;;5022182;28;20209;-84
2021/11/19 07:07:29;;;;;;;15.85;7.18;;;11.40;99.90;;;;;;5007103;28;20166;-83
2021/11/19 07:09:54;;;;;;;9.00;6.20;;;11.40;99.90;;;;;;5001133;28;20225;-84
2021/11/19 07:12:20;;;;;;;10.60;6.17;;;11.40;99.90;;;;;;4986926;28;20409;-84
2021/11/19 07:14:45;;;;;;;10.00;5.67;;;11.40;99.90;;;;;;5018461;28;20265;-80
2021/11/19 07:17:11;;;;;;;9.03;5.30;;;11.40;99.90;;;;;;5023717;28;20174;-79
2021/11/19 07:19:38;;;;;;;7.83;5.40;;;12.30;99.90;;;;;;5015160;28;20194;-80
2021/11/19 07:22:04;;;;;;;13.80;5.68;;;12.90;99.90;;;;;;5014863;28;20182;-79
2021/11/19 07:24:33;;;;;;;10.88;6.07;;;13.00;99.90;;;;;;4982676;28;20261;-83
2021/11/19 07:26:59;;;;;;;6.68;4.75;;;12.60;99.90;;;;;;4997038;28;20209;-82
2021/11/19 07:29:25;;;;;;;8.53;5.30;;;12.20;99.90;;;;;;4998147;28;20705;-83
2021/11/19 07:31:51;;;;;;;11.30;5.93;;;11.90;99.90;;;;;;4999712;28;20254;-84
2021/11/19 07:34:16;;;;;;;11.68;5.22;;;11.70;99.90;;;;;;5016712;28;20224;-82
2021/11/19 07:36:43;;;;;;;8.90;5.20;;;11.70;99.90;;;;;;4966431;28;20178;-82
2021/11/19 07:39:10;;;;;;;8.75;4.95;;;11.70;99.90;;;;;;5016289;28;20170;-82
2021/11/19 07:41:36;;;;;;;8.00;4.47;;;11.60;99.90;;;;;;5014104;28;20227;-81
2021/11/19 07:44:03;;;;;;;7.40;4.88;;;11.60;99.90;;;;;;4998358;28;20182;-81
2021/11/19 07:46:29;;;;;;;7.88;4.63;;;11.60;99.90;;;;;;5017892;28;20206;-82
2021/11/19 07:48:55;;;;;;;7.63;4.33;;;11.60;99.90;;;;;;5024649;28;20177;-81
2021/11/19 07:51:24;;;;;;;7.43;4.53;;;11.60;99.90;;;;;;5026653;28;20425;-82
2021/11/19 07:53:51;;;;;;;12.18;5.85;;;11.60;99.90;;;;;;5013684;28;20624;-83
2021/11/19 07:56:19;;;;;;;10.35;5.20;;;11.60;99.90;;;;;;5016461;28;20661;-82
2021/11/19 07:58:46;;;;;;;7.10;4.72;;;11.60;99.90;;;;;;4999232;28;20264;-83
2021/11/19 08:01:13;;;;;;;6.53;4.65;;;11.60;99.90;;;;;;4998790;28;20182;-82
2021/11/19 08:03:38;;;;;;;5.50;4.47;;;11.60;99.90;;;;;;4983836;28;20549;-82
2021/11/19 08:06:06;;;;;;;6.73;4.40;;;11.70;99.90;;;;;;4989122;28;20211;-83
2021/11/19 08:08:34;;;;;;;7.28;5.05;;;11.70;99.90;;;;;;5014699;28;20197;-84
2021/11/19 08:11:02;;;;;;;8.27;5.28;;;11.70;99.90;;;;;;4997740;28;20170;-84
2021/11/19 08:13:30;;;;;;;8.05;4.70;;;11.70;99.90;;;;;;4981915;28;20274;-84
2021/11/19 08:15:57;;;;;;;8.05;4.90;;;11.70;99.90;;;;;;5014240;28;20194;-85
2021/11/19 08:18:25;;;;;;;8.48;4.30;;;11.70;99.90;;;;;;4996268;28;20182;-85
2021/11/19 08:20:54;;;;;;;6.95;4.50;;;11.70;99.90;;;;;;4998679;28;20566;-87
2021/11/19 08:23:26;;;;;;;8.52;5.45;;;11.80;99.90;;;;;;5016102;28;20174;-86
2021/11/19 08:25:51;;;;;;;6.68;4.32;;;11.80;99.90;;;;;;4997793;28;20236;-87
2021/11/19 08:28:17;;;;;;;7.60;5.97;;;11.80;99.90;;;;;;4965636;28;20241;-86
2021/11/19 08:30:47;;;;;;;6.40;4.63;;;11.80;99.90;;;;;;5014545;28;20262;-86
2021/11/19 08:33:16;;;;;;;5.95;4.55;;;11.80;99.90;;;;;;4996205;28;20530;-86
2021/11/19 08:35:44;;;;;;;7.10;4.70;;;11.80;99.90;;;;;;4996670;28;20301;-86
2021/11/19 08:38:15;;;;;;;7.45;4.50;;;11.80;99.90;;;;;;4977978;28;20186;-85
2021/11/19 08:40:47;;;;;;;6.90;5.00;;;11.80;99.90;;;;;;5019034;28;20273;-86
2021/11/19 08:43:16;;;;;;;6.70;5.10;;;11.80;99.90;;;;;;4992699;28;20256;-85
2021/11/19 08:45:42;;;;;;;9.20;5.30;;;11.80;99.90;;;;;;5007695;28;20674;-86
2021/11/19 08:48:09;;;;;;;7.15;4.50;;;11.80;99.90;;;;;;5005291;28;20170;-85
2021/11/19 08:50:39;;;;;;;9.80;5.13;;;11.80;99.90;;;;;;4990916;28;20174;-86
2021/11/19 08:53:07;;;;;;;8.50;4.38;;;11.80;99.90;;;;;;5023987;28;20180;-85
2021/11/19 08:55:33;;;;;;;10.50;6.38;;;11.80;99.90;;;;;;5002550;28;20198;-86
2021/11/19 08:57:59;;;;;;;6.43;4.07;;;11.80;99.90;;;;;;4988933;28;20174;-84
2021/11/19 09:00:28;;;;;;;10.13;6.15;;;11.80;99.90;;;;;;5019514;28;20436;-82
2021/11/19 09:02:58;;;;;;;7.57;5.13;;;11.80;99.90;;;;;;5016979;28;20178;-82
2021/11/19 09:05:26;;;;;;;9.18;5.20;;;11.80;99.90;;;;;;4983176;28;20217;-84
2021/11/19 09:07:52;;;;;;;10.68;5.35;;;11.80;99.90;;;;;;5016262;28;20170;-84
2021/11/19 09:10:18;;;;;;;10.40;5.53;;;11.80;99.90;;;;;;5017497;28;20201;-83
2021/11/19 09:12:45;;;;;;;7.80;4.93;;;11.80;99.90;;;;;;5018068;28;20186;-83
2021/11/19 09:15:13;;;;;;;8.30;4.53;;;11.80;99.90;;;;;;5015580;28;20197;-81
2021/11/19 09:17:57;;;;;;;10.98;6.45;;;11.80;99.90;;;;;;5016791;28;20186;-83
2021/11/19 09:20:40;;;;;;;6.88;4.07;;;11.80;99.90;;;;;;5017051;28;20169;-83
2021/11/19 09:23:05;;;;;;;13.32;5.28;;;11.80;99.90;;;;;;5017055;28;20173;-83
2021/11/19 09:25:32;;;;;;;7.50;4.80;;;11.80;99.90;;;;;;5000125;28;20708;-83
2021/11/19 09:27:58;;;;;;;7.25;5.30;;;11.80;99.90;;;;;;4999870;28;20327;-84
2021/11/19 09:30:36;;;;;;;7.90;5.30;;;11.80;99.90;;;;;;4981411;28;20266;-86
2021/11/19 09:33:07;;;;;;;12.27;6.70;;;11.80;99.90;;;;;;5019342;28;20772;-84
2021/11/19 09:35:34;;;;;;;12.05;5.20;;;11.80;99.90;;;;;;5002432;28;20198;-83
2021/11/19 09:38:01;;;;;;;8.00;4.90;;;11.90;99.90;;;;;;5001658;28;20229;-83
2021/11/19 09:40:32;;;;;;;7.97;4.93;;;11.80;99.90;;;;;;4999115;28;20202;-83
2021/11/19 09:43:23;;;;;;;12.27;6.03;;;11.80;99.90;;;;;;5017667;28;20205;-83
2021/11/19 09:46:22;;;;;;;8.85;5.78;;;11.80;99.90;;;;;;4953412;28;20249;-84
2021/11/19 09:49:25;;;;;;;9.93;6.55;;;11.80;99.90;;;;;;4998938;28;20155;-84
2021/11/19 09:52:28;;;;;;;10.88;6.28;;;11.80;99.90;;;;;;4999351;28;20197;-84
2021/11/19 09:55:16;;;;;;;12.70;6.20;;;11.80;99.90;;;;;;4980738;28;20194;-84
2021/11/19 09:58:00;;;;;;;10.45;6.22;;;11.90;99.90;;;;;;4995022;28;20181;-83
2021/11/19 10:00:46;;;;;;;9.75;6.18;;;11.90;99.90;;;;;;5001746;28;20232;-84
2021/11/19 10:03:36;;;;;;;13.15;6.40;;;11.90;99.90;;;;;;4997452;28;20170;-82
2021/11/19 10:06:19;;;;;;;11.27;6.22;;;11.90;99.90;;;;;;4997185;28;20199;-83
2021/11/19 10:08:54;;;;;;;12.00;6.80;;;11.90;99.90;;;;;;4980041;28;20653;-86
2021/11/19 10:11:33;;;;;;;11.70;6.45;;;11.90;99.90;;;;;;4997025;28;20572;-83
2021/11/19 10:14:32;;;;;;;12.48;6.60;;;11.90;99.90;;;;;;4984971;28;20173;-82
2021/11/19 10:17:07;;;;;;;10.70;5.60;;;11.90;99.90;;;;;;5024754;28;20753;-83
2021/11/19 10:19:46;;;;;;;11.95;7.03;;;11.90;99.90;;;;;;5021445;28;20721;-84
2021/11/19 10:22:25;;;;;;;11.80;6.88;;;11.90;99.90;;;;;;5018874;28;20178;-83
2021/11/19 10:24:59;;;;;;;13.07;7.03;;;11.90;99.90;;;;;;5019291;28;20209;-84
2021/11/19 10:27:50;;;;;;;8.45;5.97;;;12.00;99.90;;;;;;5018492;28;20163;-81
2021/11/19 10:30:34;;;;;;;10.73;5.95;;;12.00;99.90;;;;;;5005949;28;20199;-83
2021/11/19 10:33:24;;;;;;;10.45;7.03;;;12.00;99.90;;;;;;4980738;28;20237;-83
2021/11/19 10:35:57;;;;;;;10.88;6.75;;;11.90;99.90;;;;;;5004029;28;20669;-84
2021/11/19 10:38:44;;;;;;;12.55;6.25;;;12.00;99.90;;;;;;4998325;28;20574;-84
2021/11/19 10:41:40;;;;;;;9.77;6.53;;;12.00;99.90;;;;;;4999144;28;20253;-83
2021/11/19 10:44:32;;;;;;;10.73;7.07;;;12.00;99.90;;;;;;4995131;28;20186;-84
2021/11/19 10:47:17;;;;;;;12.88;6.00;;;12.00;99.90;;;;;;5006365;28;20269;-84
2021/11/19 10:50:10;;;;;;;12.15;5.95;;;12.00;99.90;;;;;;5019401;28;20174;-83
2021/11/19 10:52:58;;;;;;;12.45;6.63;;;12.00;99.90;;;;;;5002904;28;20171;-84
2021/11/19 10:55:46;;;;;;;12.15;6.40;;;12.00;99.90;;;;;;5026423;28;20185;-81
2021/11/19 10:58:27;;;;;;;16.27;6.28;;;12.00;99.90;;;;;;5019450;28;20177;-83
2021/11/19 11:01:08;;;;;;;13.80;7.65;;;12.00;99.90;;;;;;5016852;28;20174;-83
2021/11/19 11:03:58;;;;;;;12.68;6.78;;;12.00;99.90;;;;;;5011119;28;20326;-83
2021/11/19 11:06:44;;;;;;;19.92;6.65;;;12.00;99.90;;;;;;4985765;28;20312;-82
2021/11/19 11:09:23;;;;;;;12.35;7.25;;;12.00;99.90;;;;;;5013435;28;20241;-83
2021/11/19 11:12:27;;;;;;;11.93;6.70;;;12.00;99.90;;;;;;5018848;28;20209;-85
2021/11/19 11:15:15;;;;;;;12.85;8.07;;;12.10;99.90;;;;;;4987024;28;20202;-83
2021/11/19 11:18:11;;;;;;;11.02;6.43;;;12.10;99.90;;;;;;5000314;28;20161;-87
2021/11/19 11:20:55;;;;;;;12.27;5.55;;;12.10;99.90;;;;;;5007096;28;20185;-87
2021/11/19 11:23:47;;;;;;;7.78;6.00;;;12.20;99.90;;;;;;4996255;28;20174;-84
2021/11/19 11:26:26;;;;;;;10.52;5.80;;;12.20;99.90;;;;;;5013966;28;20205;-86
2021/11/19 11:28:52;;;;;;;8.98;6.03;;;12.20;99.90;;;;;;5018494;28;20240;-86
2021/11/19 11:31:36;;;;;;;9.63;5.30;;;12.20;99.90;;;;;;5017975;28;20166;-86
2021/11/19 11:34:34;;;;;;;10.98;7.25;;;12.20;99.90;;;;;;5008934;28;20174;-87
2021/11/19 11:37:13;;;;;;;10.85;7.05;;;12.20;99.90;;;;;;4999656;28;20167;-88
2021/11/19 11:39:55;;;;;;;12.02;6.10;;;12.20;99.90;;;;;;4982843;28;20198;-87
2021/11/19 11:42:31;;;;;;;10.30;5.75;;;12.20;99.90;;;;;;4981442;28;20179;-86
2021/11/19 11:45:05;;;;;;;13.02;6.80;;;12.20;99.90;;;;;;4998887;28;20221;-85
2021/11/19 11:47:38;;;;;;;11.55;5.75;;;12.30;99.90;;;;;;4998756;28;20179;-87
2021/11/19 11:50:37;;;;;;;12.38;6.90;;;12.20;99.90;;;;;;5002356;28;20202;-82
2021/11/19 11:53:25;;;;;;;10.65;6.32;;;12.20;99.90;;;;;;4999278;28;20167;-82
2021/11/19 11:56:02;;;;;;;7.55;5.30;;;12.30;99.90;;;;;;5014099;28;20221;-83
2021/11/19 11:58:31;;;;;;;9.85;6.13;;;12.30;99.90;;;;;;4997327;28;20668;-83
2021/11/19 12:01:26;;;;;;;10.35;6.50;;;12.30;99.90;;;;;;5014141;28;20197;-83
2021/11/19 12:03:57;;;;;;;11.07;5.40;;;12.30;99.90;;;;;;5001459;28;20258;-83
2021/11/19 12:06:33;;;;;;;6.68;4.75;;;12.30;99.90;;;;;;4998976;28;20201;-81
2021/11/19 12:09:33;;;;;;;10.18;5.60;;;12.40;99.90;;;;;;5017030;28;20166;-82
2021/11/19 12:12:30;;;;;;;19.45;5.55;;;12.40;99.90;;;;;;5013064;28;20205;-82
2021/11/19 12:15:25;;;;;;;9.93;5.43;;;12.30;99.90;;;;;;4995915;28;20293;-83
2021/11/19 12:18:04;;;;;;;8.85;4.97;;;12.40;99.90;;;;;;5001327;28;20175;-81
2021/11/19 12:20:40;;;;;;;9.77;5.43;;;12.50;99.90;;;;;;5006188;28;20166;-84
2021/11/19 12:23:45;;;;;;;8.23;4.50;;;12.50;99.90;;;;;;4991782;28;20174;-83
2021/11/19 12:26:48;;;;;;;8.80;4.97;;;12.40;99.90;;;;;;5000785;28;20224;-85
2021/11/19 12:29:36;;;;;;;9.05;5.25;;;12.50;99.90;;;;;;5001745;28;20519;-86
2021/11/19 12:33:12;;;;;;;;;;;;;;;;;;;;;
2021/11/19 12:36:31;;;;;;;10.13;4.78;;;12.50;99.90;;;;;;5025264;28;20268;-85
2021/11/19 12:39:35;;;;;;;;;;;;;;;;;;;;;
2021/11/19 12:42:38;;;;;;;8.75;5.28;;;12.50;99.90;;;;;;4987873;28;20290;-85
2021/11/19 12:45:45;;;;;;;8.13;4.80;;;12.50;99.90;;;;;;5007553;28;20474;-84
2021/11/19 12:48:38;;;;;;;6.68;4.15;;;12.50;99.90;;;;;;5026601;28;20178;-84
2021/11/19 12:51:12;;;;;;;8.85;5.05;;;12.50;99.90;;;;;;5036384;28;20182;-85
2021/11/19 12:54:04;;;;;;;8.05;3.97;;;12.60;99.90;;;;;;5022674;28;20161;-87
2021/11/19 12:57:27;;;;;;;7.85;4.85;;;12.50;99.90;;;;;;5031408;28;20212;-89
2021/11/19 13:07:43;;;;;;;8.27;5.75;;;12.50;99.90;;;;;;5240396;22;20239;-91
2021/11/19 13:14:07;;;;;;;7.90;6.00;;;12.60;99.90;;;;;;5047949;28;20185;-87
2021/11/19 13:17:31;;;;;;;;;;;;;;;;;;;;;
2021/11/19 13:23:54;;;;;;;;;;;;;;;;;;;;;
2021/11/19 13:26:22;;;;;;;5.95;4.43;;;12.60;99.90;;;;;;4993461;28;20300;-85
2021/11/19 13:28:55;;;;;;;7.90;4.43;;;12.70;99.90;;;;;;5039303;28;20173;-81
2021/11/19 13:31:20;;;;;;;6.95;3.83;;;12.60;99.90;;;;;;5037288;28;20169;-83
2021/11/19 13:34:01;;;;;;;6.00;3.90;;;12.60;99.90;;;;;;5037323;28;20544;-82